createdAt,value
2019-03-30T00:00:09.979Z,97715.55
2019-03-30T00:01:46.221Z,97712.45
2019-03-30T00:03:22.770Z,97711.69
2019-03-30T00:04:58.959Z,97708.78
2019-03-30T00:06:35.213Z,97706.25
2019-03-30T00:08:11.838Z,97711.47
2019-03-30T00:10:07.979Z,97706.62
2019-03-30T00:11:44.607Z,97711.28
2019-03-30T00:13:20.914Z,97706.21
2019-03-30T00:14:57.244Z,97712.81
2019-03-30T00:16:33.537Z,97706.27
2019-03-30T00:18:10.253Z,97709.36
2019-03-30T00:19:47.171Z,97704.70
2019-03-30T00:21:23.197Z,97700.06
2019-03-30T00:22:59.672Z,97705.69
2019-03-30T00:24:35.693Z,97697.17
2019-03-30T00:26:22.186Z,97694.25
2019-03-30T00:28:01.054Z,97703.17
2019-03-30T00:29:41.695Z,97699.67
2019-03-30T00:31:18.257Z,97702.57
2019-03-30T00:32:54.195Z,97697.13
2019-03-30T00:34:37.256Z,97695.78
2019-03-30T00:36:10.777Z,97694.22
2019-03-30T00:37:48.809Z,97693.42
2019-03-30T00:39:25.021Z,97690.52
2019-03-30T00:41:02.021Z,97695.72
2019-03-30T00:42:39.362Z,97691.83
2019-03-30T00:44:17.212Z,97689.16
2019-03-30T00:45:57.545Z,97686.51
2019-03-30T00:47:33.522Z,97683.20
2019-03-30T00:49:11.526Z,97683.41
2019-03-30T00:50:47.462Z,97683.59
2019-03-30T00:52:23.398Z,97682.27
2019-03-30T00:53:59.917Z,97688.44
2019-03-30T00:55:36.385Z,97682.44
2019-03-30T00:57:12.781Z,97682.65
2019-03-30T00:58:49.946Z,97683.61
2019-03-30T01:00:26.976Z,97678.57
2019-03-30T01:02:03.093Z,97679.91
2019-03-30T01:03:39.179Z,97678.97
2019-03-30T01:05:16.176Z,97680.50
2019-03-30T01:06:52.448Z,97671.59
2019-03-30T01:08:31.349Z,97674.89
2019-03-30T01:10:11.970Z,97675.08
2019-03-30T01:11:49.915Z,97671.59
2019-03-30T01:13:26.412Z,97672.77
2019-03-30T01:15:04.713Z,97674.31
2019-03-30T01:16:40.649Z,97673.53
2019-03-30T01:18:16.577Z,97672.56
2019-03-30T01:20:02.684Z,97673.33
2019-03-30T01:21:30.497Z,97681.84
2019-03-30T01:23:06.548Z,97674.84
2019-03-30T01:24:46.672Z,97673.30
2019-03-30T01:26:22.842Z,97674.81
2019-03-30T01:27:59.197Z,97674.61
2019-03-30T01:29:35.290Z,97679.03
2019-03-30T01:31:11.516Z,97673.22
2019-03-30T01:32:47.448Z,97670.77
2019-03-30T01:34:23.466Z,97666.72
2019-03-30T01:36:01.165Z,97666.52
2019-03-30T01:37:38.486Z,97666.30
2019-03-30T01:39:15.250Z,97668.78
2019-03-30T01:40:52.286Z,97660.48
2019-03-30T01:42:28.605Z,97662.09
2019-03-30T01:44:04.597Z,97657.84
2019-03-30T01:45:40.742Z,97661.32
2019-03-30T01:47:16.699Z,97651.28
2019-03-30T01:48:52.774Z,97651.66
2019-03-30T01:50:29.249Z,97653.41
2019-03-30T01:52:06.040Z,97645.28
2019-03-30T01:53:41.987Z,97650.89
2019-03-30T01:55:18.847Z,97641.20
2019-03-30T01:56:54.935Z,97641.77
2019-03-30T01:58:31.501Z,97643.72
2019-03-30T02:00:15.593Z,97641.80
2019-03-30T02:01:51.830Z,97640.64
2019-03-30T02:03:27.828Z,97635.21
2019-03-30T02:05:04.256Z,97633.84
2019-03-30T02:06:40.460Z,97629.41
2019-03-30T02:08:16.977Z,97628.64
2019-03-30T02:09:57.854Z,97627.27
2019-03-30T02:11:33.774Z,97627.46
2019-03-30T02:13:10.274Z,97630.96
2019-03-30T02:14:50.723Z,97626.89
2019-03-30T02:16:28.645Z,97620.30
2019-03-30T02:18:04.856Z,97618.75
2019-03-30T02:19:41.324Z,97620.09
2019-03-30T02:21:17.793Z,97614.69
2019-03-30T02:22:54.268Z,97614.67
2019-03-30T02:24:30.827Z,97608.48
2019-03-30T02:26:07.343Z,97614.08
2019-03-30T02:27:43.227Z,97609.06
2019-03-30T02:29:20.984Z,97610.22
2019-03-30T02:31:01.089Z,97605.19
2019-03-30T02:32:37.041Z,97605.38
2019-03-30T02:34:13.051Z,97603.83
2019-03-30T02:35:49.064Z,97600.52
2019-03-30T02:37:25.084Z,97596.46
2019-03-30T02:39:01.630Z,97594.16
2019-03-30T02:40:37.863Z,97593.97
2019-03-30T02:42:13.927Z,97593.58
2019-03-30T02:43:49.916Z,97586.62
2019-03-30T02:45:26.364Z,97593.78
2019-03-30T02:47:02.819Z,97583.91
2019-03-30T02:48:38.833Z,97589.72
2019-03-30T02:50:15.292Z,97582.16
2019-03-30T02:51:53.199Z,97587.57
2019-03-30T02:53:31.833Z,97584.30
2019-03-30T02:55:12.393Z,97583.13
2019-03-30T02:56:45.820Z,97585.06
2019-03-30T02:58:22.743Z,97586.22
2019-03-30T02:59:58.666Z,97585.25
2019-03-30T03:01:35.563Z,97576.55
2019-03-30T03:03:11.996Z,97576.76
2019-03-30T03:04:51.172Z,97577.70
2019-03-30T03:06:28.392Z,97572.30
2019-03-30T03:08:04.798Z,97566.48
2019-03-30T03:09:41.458Z,97568.05
2019-03-30T03:11:17.565Z,97569.98
2019-03-30T03:12:53.579Z,97564.36
2019-03-30T03:14:29.632Z,97567.84
2019-03-30T03:16:05.834Z,97565.71
2019-03-30T03:17:42.809Z,97564.37
2019-03-30T03:19:18.744Z,97563.59
2019-03-30T03:21:07.307Z,97568.05
2019-03-30T03:22:36.231Z,97561.27
2019-03-30T03:24:12.818Z,97561.48
2019-03-30T03:25:49.051Z,97564.18
2019-03-30T03:27:25.163Z,97564.95
2019-03-30T03:29:02.046Z,97561.42
2019-03-30T03:30:39.649Z,97561.84
2019-03-30T03:32:15.593Z,97553.73
2019-03-30T03:33:52.152Z,97555.45
2019-03-30T03:35:28.804Z,97558.95
2019-03-30T03:37:04.704Z,97557.02
2019-03-30T03:38:42.376Z,97556.61
2019-03-30T03:40:18.582Z,97558.38
2019-03-30T03:41:58.901Z,97558.36
2019-03-30T03:43:35.140Z,97553.34
2019-03-30T03:45:13.549Z,97558.77
2019-03-30T03:46:49.590Z,97555.66
2019-03-30T03:48:25.722Z,97550.44
2019-03-30T03:50:08.512Z,97547.91
2019-03-30T03:51:45.659Z,97557.19
2019-03-30T03:53:21.983Z,97550.81
2019-03-30T03:54:59.043Z,97546.96
2019-03-30T03:56:35.183Z,97550.83
2019-03-30T03:58:11.592Z,97549.88
2019-03-30T03:59:47.965Z,97547.35
2019-03-30T04:01:24.002Z,97543.68
2019-03-30T04:03:01.769Z,97546.37
2019-03-30T04:04:39.399Z,97548.13
2019-03-30T04:06:15.799Z,97543.68
2019-03-30T04:07:52.242Z,97545.41
2019-03-30T04:09:28.455Z,97542.33
2019-03-30T04:11:04.611Z,97536.70
2019-03-30T04:12:41.022Z,97536.52
2019-03-30T04:14:21.544Z,97536.50
2019-03-30T04:15:57.631Z,97538.06
2019-03-30T04:17:33.648Z,97531.66
2019-03-30T04:19:09.937Z,97534.38
2019-03-30T04:20:46.035Z,97533.81
2019-03-30T04:22:22.509Z,97534.19
2019-03-30T04:23:58.638Z,97532.66
2019-03-30T04:25:35.018Z,97529.17
2019-03-30T04:27:11.019Z,97530.52
2019-03-30T04:28:47.163Z,97524.53
2019-03-30T04:30:23.628Z,97533.43
2019-03-30T04:31:59.893Z,97531.28
2019-03-30T04:33:36.156Z,97531.67
2019-03-30T04:35:12.591Z,97532.25
2019-03-30T04:36:49.679Z,97531.28
2019-03-30T04:38:25.925Z,97526.05
2019-03-30T04:40:02.039Z,97526.64
2019-03-30T04:41:39.142Z,97522.97
2019-03-30T04:43:15.090Z,97522.97
2019-03-30T04:44:51.299Z,97523.34
2019-03-30T04:46:36.021Z,97516.77
2019-03-30T04:48:12.199Z,97520.08
2019-03-30T04:49:48.395Z,97521.23
2019-03-30T04:51:24.424Z,97525.48
2019-03-30T04:53:03.603Z,97526.06
2019-03-30T04:54:39.559Z,97517.16
2019-03-30T04:56:15.586Z,97518.89
2019-03-30T04:57:53.050Z,97514.66
2019-03-30T04:59:28.960Z,97518.90
2019-03-30T05:01:05.907Z,97518.32
2019-03-30T05:02:42.872Z,97522.56
2019-03-30T05:04:18.896Z,97514.05
2019-03-30T05:05:55.207Z,97517.55
2019-03-30T05:07:31.220Z,97512.70
2019-03-30T05:09:08.822Z,97522.78
2019-03-30T05:10:45.314Z,97516.00
2019-03-30T05:12:22.044Z,97520.65
2019-03-30T05:13:59.039Z,97520.24
2019-03-30T05:15:36.211Z,97521.44
2019-03-30T05:17:12.843Z,97513.89
2019-03-30T05:18:48.918Z,97515.41
2019-03-30T05:20:28.782Z,97512.70
2019-03-30T05:22:13.563Z,97511.16
2019-03-30T05:23:47.306Z,97516.19
2019-03-30T05:25:26.096Z,97514.27
2019-03-30T05:27:02.628Z,97512.14
2019-03-30T05:28:38.816Z,97513.70
2019-03-30T05:30:17.780Z,97510.40
2019-03-30T05:31:53.980Z,97518.15
2019-03-30T05:33:30.695Z,97513.30
2019-03-30T05:35:07.447Z,97521.23
2019-03-30T05:36:44.191Z,97515.64
2019-03-30T05:38:20.699Z,97522.02
2019-03-30T05:39:57.242Z,97518.16
2019-03-30T05:41:33.258Z,97515.43
2019-03-30T05:43:09.286Z,97522.59
2019-03-30T05:44:49.725Z,97528.39
2019-03-30T05:46:25.788Z,97523.16
2019-03-30T05:48:04.346Z,97530.33
2019-03-30T05:49:40.000Z,97528.02
2019-03-30T05:51:16.941Z,97527.99
2019-03-30T05:52:54.240Z,97522.39
2019-03-30T05:54:30.519Z,97525.31
2019-03-30T05:56:10.032Z,97524.12
2019-03-30T05:57:46.526Z,97522.00
2019-03-30T05:59:22.550Z,97523.75
2019-03-30T06:00:59.350Z,97523.73
2019-03-30T06:02:35.714Z,97528.19
2019-03-30T06:04:12.289Z,97527.22
2019-03-30T06:05:48.334Z,97527.77
2019-03-30T06:07:27.394Z,97522.96
2019-03-30T06:09:05.054Z,97523.16
2019-03-30T06:10:41.013Z,97523.52
2019-03-30T06:12:17.231Z,97525.45
2019-03-30T06:13:53.470Z,97521.58
2019-03-30T06:15:29.814Z,97522.13
2019-03-30T06:17:06.033Z,97520.20
2019-03-30T06:18:42.727Z,97518.81
2019-03-30T06:20:18.703Z,97514.17
2019-03-30T06:21:54.751Z,97521.69
2019-03-30T06:23:31.125Z,97519.55
2019-03-30T06:25:08.586Z,97510.98
2019-03-30T06:26:44.537Z,97508.65
2019-03-30T06:28:21.648Z,97516.02
2019-03-30T06:30:17.266Z,97505.88
2019-03-30T06:31:59.299Z,97503.44
2019-03-30T06:33:38.349Z,97506.84
2019-03-30T06:35:14.726Z,97511.62
2019-03-30T06:36:51.760Z,97512.44
2019-03-30T06:38:29.655Z,97505.92
2019-03-30T06:40:06.007Z,97503.03
2019-03-30T06:41:42.453Z,97504.77
2019-03-30T06:43:23.888Z,97502.25
2019-03-30T06:44:59.657Z,97496.44
2019-03-30T06:46:39.282Z,97494.45
2019-03-30T06:48:13.813Z,97498.22
2019-03-30T06:49:49.904Z,97501.42
2019-03-30T06:51:25.838Z,97495.55
2019-03-30T06:53:02.039Z,97502.30
2019-03-30T06:54:58.360Z,97501.41
2019-03-30T06:56:39.092Z,97499.05
2019-03-30T06:58:35.255Z,97491.81
2019-03-30T07:00:14.387Z,97487.65
2019-03-30T07:01:50.623Z,97485.10
2019-03-30T07:03:27.850Z,97479.78
2019-03-30T07:05:04.222Z,97479.91
2019-03-30T07:06:45.668Z,97478.72
2019-03-30T07:08:22.246Z,97475.82
2019-03-30T07:09:58.225Z,97475.43
2019-03-30T07:11:35.915Z,97475.26
2019-03-30T07:13:11.978Z,97472.00
2019-03-30T07:14:47.974Z,97474.77
2019-03-30T07:16:23.916Z,97479.40
2019-03-30T07:18:00.323Z,97482.05
2019-03-30T07:19:36.543Z,97474.75
2019-03-30T07:21:12.988Z,97477.06
2019-03-30T07:22:51.303Z,97472.71
2019-03-30T07:24:29.030Z,97484.11
2019-03-30T07:26:05.357Z,97486.13
2019-03-30T07:27:41.585Z,97484.58
2019-03-30T07:29:18.018Z,97486.91
2019-03-30T07:30:58.286Z,97483.24
2019-03-30T07:32:34.524Z,97481.80
2019-03-30T07:34:12.777Z,97479.17
2019-03-30T07:35:49.845Z,97482.36
2019-03-30T07:37:28.244Z,97482.46
2019-03-30T07:39:08.779Z,97479.78
2019-03-30T07:40:47.597Z,97482.77
2019-03-30T07:42:23.649Z,97485.61
2019-03-30T07:43:59.724Z,97477.48
2019-03-30T07:45:38.087Z,97478.30
2019-03-30T07:47:15.086Z,97481.38
2019-03-30T07:48:51.208Z,97483.34
2019-03-30T07:50:28.347Z,97481.91
2019-03-30T07:52:04.371Z,97485.98
2019-03-30T07:53:44.726Z,97486.89
2019-03-30T07:55:18.789Z,97477.38
2019-03-30T07:57:05.337Z,97479.78
2019-03-30T07:58:35.834Z,97482.12
2019-03-30T08:00:15.128Z,97473.44
2019-03-30T08:01:51.622Z,97475.53
2019-03-30T08:03:28.823Z,97474.28
2019-03-30T08:05:06.088Z,97477.59
2019-03-30T08:06:48.028Z,97476.08
2019-03-30T08:08:24.938Z,97481.27
2019-03-30T08:10:05.095Z,97475.75
2019-03-30T08:11:46.395Z,97476.03
2019-03-30T08:13:25.293Z,97478.31
2019-03-30T08:15:04.275Z,97475.79
2019-03-30T08:16:48.977Z,97472.54
2019-03-30T08:18:27.832Z,97464.16
2019-03-30T08:20:05.145Z,97472.52
2019-03-30T08:21:44.736Z,97472.52
2019-03-30T08:23:22.461Z,97469.00
2019-03-30T08:25:01.157Z,97470.84
2019-03-30T08:26:40.962Z,97472.72
2019-03-30T08:28:16.697Z,97471.79
2019-03-30T08:29:55.486Z,97475.16
2019-03-30T08:31:32.194Z,97474.70
2019-03-30T08:33:11.661Z,97474.70
2019-03-30T08:34:52.212Z,97474.22
2019-03-30T08:36:30.423Z,97460.22
2019-03-30T08:38:08.787Z,97461.25
2019-03-30T08:39:45.333Z,97445.69
2019-03-30T08:41:21.298Z,97446.38
2019-03-30T08:42:59.810Z,97450.55
2019-03-30T08:44:42.842Z,97459.84
2019-03-30T08:46:21.428Z,97452.49
2019-03-30T08:47:57.508Z,97449.75
2019-03-30T08:49:34.058Z,97450.45
2019-03-30T08:51:10.538Z,97446.95
2019-03-30T08:52:46.862Z,97446.67
2019-03-30T08:54:23.756Z,97442.37
2019-03-30T08:56:00.755Z,97434.91
2019-03-30T08:57:37.293Z,97447.52
2019-03-30T08:59:17.815Z,97440.43
2019-03-30T09:00:55.232Z,97439.63
2019-03-30T09:02:31.810Z,97441.20
2019-03-30T09:04:22.473Z,97438.02
2019-03-30T09:06:10.499Z,97431.92
2019-03-30T09:07:57.154Z,97434.11
2019-03-30T09:09:35.200Z,97428.64
2019-03-30T09:11:23.387Z,97434.25
2019-03-30T09:13:05.994Z,97437.20
2019-03-30T09:14:43.156Z,97430.41
2019-03-30T09:16:24.438Z,97433.97
2019-03-30T09:18:03.652Z,97421.02
2019-03-30T09:19:43.390Z,97416.42
2019-03-30T09:21:24.593Z,97419.70
2019-03-30T09:23:01.960Z,97403.87
2019-03-30T09:24:40.136Z,97411.81
2019-03-30T09:26:20.835Z,97413.52
2019-03-30T09:27:57.555Z,97404.50
2019-03-30T09:29:43.320Z,97387.58
2019-03-30T09:31:21.127Z,97400.55
2019-03-30T09:33:26.743Z,97417.23
2019-03-30T09:35:10.266Z,97429.39
2019-03-30T09:36:48.685Z,97431.39
2019-03-30T09:38:32.123Z,97440.66
2019-03-30T09:40:11.497Z,97440.79
2019-03-30T09:41:55.219Z,97442.40
2019-03-30T09:43:32.723Z,97441.70
2019-03-30T09:45:09.424Z,97435.57
2019-03-30T09:46:47.346Z,97435.61
2019-03-30T09:48:25.215Z,97429.23
2019-03-30T09:50:03.069Z,97436.22
2019-03-30T09:51:41.170Z,97437.84
2019-03-30T09:53:21.833Z,97435.17
2019-03-30T09:55:04.621Z,97430.91
2019-03-30T09:56:41.307Z,97428.73
2019-03-30T09:58:18.195Z,97428.98
2019-03-30T09:59:59.422Z,97419.97
2019-03-30T10:01:39.516Z,97427.09
2019-03-30T10:03:19.273Z,97415.92
2019-03-30T10:05:10.084Z,97414.67
2019-03-30T10:06:47.879Z,97415.96
2019-03-30T10:08:28.011Z,97414.91
2019-03-30T10:10:05.725Z,97411.37
2019-03-30T10:11:45.480Z,97407.13
2019-03-30T10:13:28.895Z,97409.66
2019-03-30T10:15:08.830Z,97406.52
2019-03-30T10:16:45.005Z,97414.47
2019-03-30T10:18:23.856Z,97413.55
2019-03-30T10:20:05.383Z,97417.52
2019-03-30T10:21:44.500Z,97413.91
2019-03-30T10:23:21.180Z,97399.09
2019-03-30T10:24:59.239Z,97402.85
2019-03-30T10:26:39.527Z,97411.22
2019-03-30T10:28:18.203Z,97407.31
2019-03-30T10:29:57.598Z,97411.06
2019-03-30T10:31:34.737Z,97400.12
2019-03-30T10:33:18.859Z,97406.47
2019-03-30T10:34:56.074Z,97403.78
2019-03-30T10:36:38.534Z,97400.41
2019-03-30T10:38:20.666Z,97407.80
2019-03-30T10:39:59.307Z,97400.19
2019-03-30T10:41:42.329Z,97398.03
2019-03-30T10:43:19.589Z,97405.97
2019-03-30T10:44:55.797Z,97402.67
2019-03-30T10:46:31.811Z,97397.62
2019-03-30T10:48:07.940Z,97397.09
2019-03-30T10:49:55.662Z,97391.20
2019-03-30T10:51:34.904Z,97397.70
2019-03-30T10:53:16.543Z,97385.34
2019-03-30T10:54:53.161Z,97390.34
2019-03-30T10:56:34.901Z,97395.95
2019-03-30T10:58:11.411Z,97393.56
2019-03-30T10:59:49.745Z,97382.44
2019-03-30T11:01:28.054Z,97391.23
2019-03-30T11:03:04.134Z,97385.59
2019-03-30T11:04:40.939Z,97376.32
2019-03-30T11:06:25.824Z,97370.42
2019-03-30T11:08:11.432Z,97369.91
2019-03-30T11:09:52.110Z,97377.45
2019-03-30T11:11:28.413Z,97371.88
2019-03-30T11:13:08.180Z,97359.49
2019-03-30T11:14:45.396Z,97360.12
2019-03-30T11:16:25.664Z,97361.70
2019-03-30T11:18:18.260Z,97371.07
2019-03-30T11:19:56.352Z,97361.92
2019-03-30T11:21:34.515Z,97373.00
2019-03-30T11:23:16.911Z,97368.03
2019-03-30T11:25:07.296Z,97367.31
2019-03-30T11:26:45.072Z,97363.25
2019-03-30T11:28:31.252Z,97356.08
2019-03-30T11:30:24.676Z,97371.95
2019-03-30T11:32:20.933Z,97364.52
2019-03-30T11:34:05.908Z,97362.79
2019-03-30T11:35:46.734Z,97363.09
2019-03-30T11:37:28.556Z,97359.09
2019-03-30T11:39:06.447Z,97361.02
2019-03-30T11:40:43.965Z,97357.84
2019-03-30T11:42:32.060Z,97352.78
2019-03-30T11:44:10.982Z,97355.81
2019-03-30T11:45:49.763Z,97345.72
2019-03-30T11:47:30.733Z,97356.34
2019-03-30T11:49:07.770Z,97349.18
2019-03-30T11:50:48.190Z,97357.48
2019-03-30T11:52:27.345Z,97363.11
2019-03-30T11:54:29.220Z,97350.66
2019-03-30T11:55:45.985Z,97351.20
2019-03-30T11:57:31.706Z,97343.96
2019-03-30T11:59:12.099Z,97349.33
2019-03-30T12:00:51.206Z,97345.72
2019-03-30T12:02:28.549Z,97345.74
2019-03-30T12:04:05.498Z,97342.47
2019-03-30T12:06:00.498Z,97346.47
2019-03-30T12:07:37.821Z,97335.53
2019-03-30T12:09:14.261Z,97340.34
2019-03-30T12:10:50.671Z,97335.56
2019-03-30T12:12:28.771Z,97331.04
2019-03-30T12:14:18.414Z,97334.25
2019-03-30T12:15:57.344Z,97328.59
2019-03-30T12:17:41.252Z,97319.27
2019-03-30T12:19:19.135Z,97311.44
2019-03-30T12:21:01.336Z,97322.63
2019-03-30T12:22:41.860Z,97322.48
2019-03-30T12:24:21.541Z,97311.13
2019-03-30T12:26:05.325Z,97316.34
2019-03-30T12:27:43.039Z,97308.88
2019-03-30T12:29:19.057Z,97307.77
2019-03-30T12:30:56.992Z,97307.94
2019-03-30T12:32:33.396Z,97300.50
2019-03-30T12:34:13.226Z,97298.48
2019-03-30T12:35:49.380Z,97301.75
2019-03-30T12:37:26.947Z,97286.50
2019-03-30T12:39:21.694Z,97299.02
2019-03-30T12:40:57.610Z,97299.02
2019-03-30T12:42:44.670Z,97296.87
2019-03-30T12:44:20.742Z,97296.19
2019-03-30T12:45:59.695Z,97285.36
2019-03-30T12:47:40.362Z,97297.19
2019-03-30T12:49:24.296Z,97285.55
2019-03-30T12:51:03.040Z,97288.02
2019-03-30T12:52:39.590Z,97287.41
2019-03-30T12:54:17.787Z,97283.12
2019-03-30T12:55:56.933Z,97277.27
2019-03-30T12:57:36.521Z,97284.84
2019-03-30T12:59:13.159Z,97278.09
2019-03-30T13:00:51.393Z,97264.48
2019-03-30T13:02:31.502Z,97267.88
2019-03-30T13:04:11.630Z,97268.64
2019-03-30T13:05:49.684Z,97271.80
2019-03-30T13:07:31.315Z,97273.95
2019-03-30T13:09:14.100Z,97279.16
2019-03-30T13:10:50.450Z,97269.89
2019-03-30T13:12:26.717Z,97266.77
2019-03-30T13:14:03.135Z,97261.53
2019-03-30T13:15:43.947Z,97268.66
2019-03-30T13:17:21.083Z,97272.71
2019-03-30T13:18:58.329Z,97271.19
2019-03-30T13:20:36.360Z,97260.61
2019-03-30T13:22:18.546Z,97257.73
2019-03-30T13:24:03.516Z,97257.55
2019-03-30T13:26:04.529Z,97255.47
2019-03-30T13:27:40.808Z,97253.13
2019-03-30T13:29:19.455Z,97258.75
2019-03-30T13:30:55.791Z,97249.75
2019-03-30T13:32:31.896Z,97258.77
2019-03-30T13:34:08.117Z,97257.11
2019-03-30T13:35:49.262Z,97251.38
2019-03-30T13:37:25.651Z,97251.59
2019-03-30T13:39:02.305Z,97248.48
2019-03-30T13:40:38.450Z,97242.59
2019-03-30T13:42:15.367Z,97247.41
2019-03-30T13:43:59.709Z,97255.20
2019-03-30T13:45:43.162Z,97252.30
2019-03-30T13:47:30.427Z,97249.45
2019-03-30T13:49:07.941Z,97255.70
2019-03-30T13:50:44.800Z,97244.34
2019-03-30T13:52:20.823Z,97244.48
2019-03-30T13:53:57.078Z,97245.11
2019-03-30T13:55:33.745Z,97242.91
2019-03-30T13:57:14.310Z,97232.36
2019-03-30T13:58:53.562Z,97228.64
2019-03-30T14:00:30.488Z,97235.76
2019-03-30T14:02:10.666Z,97237.16
2019-03-30T14:03:49.033Z,97230.85
2019-03-30T14:05:28.757Z,97229.19
2019-03-30T14:07:05.972Z,97227.27
2019-03-30T14:08:49.809Z,97223.94
2019-03-30T14:10:26.402Z,97231.41
2019-03-30T14:12:05.854Z,97230.02
2019-03-30T14:13:49.296Z,97223.59
2019-03-30T14:15:31.090Z,97221.17
2019-03-30T14:17:09.733Z,97224.13
2019-03-30T14:18:46.831Z,97222.33
2019-03-30T14:20:29.476Z,97220.13
2019-03-30T14:22:10.187Z,97222.34
2019-03-30T14:23:52.004Z,97216.30
2019-03-30T14:25:31.747Z,97211.05
2019-03-30T14:27:13.097Z,97217.50
2019-03-30T14:28:57.172Z,97209.53
2019-03-30T14:30:41.520Z,97215.84
2019-03-30T14:32:20.609Z,97220.19
2019-03-30T14:33:59.195Z,97220.32
2019-03-30T14:35:43.715Z,97221.29
2019-03-30T14:37:19.899Z,97217.84
2019-03-30T14:38:55.979Z,97221.84
2019-03-30T14:40:34.183Z,97214.23
2019-03-30T14:42:11.593Z,97207.52
2019-03-30T14:43:48.676Z,97200.09
2019-03-30T14:45:24.800Z,97203.37
2019-03-30T14:47:13.767Z,97202.38
2019-03-30T14:48:52.736Z,97200.03
2019-03-30T14:50:29.372Z,97205.24
2019-03-30T14:52:08.570Z,97211.13
2019-03-30T14:53:57.960Z,97204.37
2019-03-30T14:55:42.504Z,97209.28
2019-03-30T14:57:41.155Z,97207.03
2019-03-30T14:59:20.807Z,97200.41
2019-03-30T15:00:59.103Z,97195.95
2019-03-30T15:02:36.336Z,97190.78
2019-03-30T15:04:12.388Z,97195.42
2019-03-30T15:05:55.727Z,97196.24
2019-03-30T15:07:35.860Z,97200.41
2019-03-30T15:09:12.722Z,97199.42
2019-03-30T15:10:54.056Z,97192.02
2019-03-30T15:12:30.866Z,97203.03
2019-03-30T15:14:08.507Z,97205.50
2019-03-30T15:15:44.695Z,97202.38
2019-03-30T15:17:21.160Z,97196.52
2019-03-30T15:18:58.268Z,97198.25
2019-03-30T15:20:38.694Z,97196.22
2019-03-30T15:22:21.658Z,97200.11
2019-03-30T15:24:09.510Z,97202.97
2019-03-30T15:25:49.640Z,97202.08
2019-03-30T15:27:30.474Z,97201.16
2019-03-30T15:29:09.109Z,97199.91
2019-03-30T15:30:45.354Z,97198.95
2019-03-30T15:32:21.482Z,97194.65
2019-03-30T15:34:02.070Z,97192.66
2019-03-30T15:35:40.418Z,97189.47
2019-03-30T15:37:17.387Z,97189.20
2019-03-30T15:38:57.203Z,97188.16
2019-03-30T15:40:33.542Z,97198.34
2019-03-30T15:42:13.835Z,97192.60
2019-03-30T15:43:52.308Z,97189.08
2019-03-30T15:45:35.772Z,97188.03
2019-03-30T15:47:12.399Z,97196.48
2019-03-30T15:48:48.607Z,97187.41
2019-03-30T15:50:27.795Z,97188.41
2019-03-30T15:52:14.036Z,97184.16
2019-03-30T15:53:49.788Z,97196.58
2019-03-30T15:55:27.081Z,97193.32
2019-03-30T15:57:13.547Z,97193.14
2019-03-30T15:58:41.170Z,97189.40
2019-03-30T16:00:19.881Z,97197.69
2019-03-30T16:01:58.585Z,97197.13
2019-03-30T16:03:34.839Z,97200.55
2019-03-30T16:05:15.383Z,97200.38
2019-03-30T16:06:55.012Z,97198.41
2019-03-30T16:08:31.506Z,97203.42
2019-03-30T16:10:11.412Z,97203.42
2019-03-30T16:11:51.519Z,97204.33
2019-03-30T16:13:27.988Z,97205.73
2019-03-30T16:15:07.574Z,97199.22
2019-03-30T16:16:46.893Z,97195.70
2019-03-30T16:18:26.360Z,97201.55
2019-03-30T16:20:06.963Z,97203.02
2019-03-30T16:21:44.825Z,97202.58
2019-03-30T16:23:21.183Z,97203.20
2019-03-30T16:25:03.273Z,97197.23
2019-03-30T16:26:52.607Z,97199.98
2019-03-30T16:28:37.345Z,97205.23
2019-03-30T16:30:19.020Z,97203.05
2019-03-30T16:31:58.118Z,97201.47
2019-03-30T16:33:37.990Z,97194.92
2019-03-30T16:35:14.563Z,97201.67
2019-03-30T16:36:51.587Z,97201.20
2019-03-30T16:38:29.820Z,97198.91
2019-03-30T16:40:07.792Z,97197.88
2019-03-30T16:41:47.429Z,97198.27
2019-03-30T16:43:25.685Z,97200.34
2019-03-30T16:45:04.410Z,97200.64
2019-03-30T16:46:51.959Z,97205.48
2019-03-30T16:48:30.095Z,97207.02
2019-03-30T16:50:40.552Z,97205.96
2019-03-30T16:52:35.209Z,97207.19
2019-03-30T16:54:13.700Z,97205.20
2019-03-30T16:55:55.410Z,97208.77
2019-03-30T16:57:43.055Z,97200.28
2019-03-30T16:59:26.428Z,97207.68
2019-03-30T17:01:08.263Z,97205.70
2019-03-30T17:02:54.456Z,97205.25
2019-03-30T17:04:38.095Z,97200.34
2019-03-30T17:06:14.539Z,97210.03
2019-03-30T17:07:53.170Z,97208.36
2019-03-30T17:09:36.914Z,97212.80
2019-03-30T17:11:14.050Z,97206.26
2019-03-30T17:13:07.724Z,97211.29
2019-03-30T17:14:55.699Z,97212.09
2019-03-30T17:16:49.240Z,97217.75
2019-03-30T17:18:26.258Z,97216.08
2019-03-30T17:20:09.563Z,97210.60
2019-03-30T17:21:47.973Z,97212.28
2019-03-30T17:23:33.758Z,97210.33
2019-03-30T17:25:23.599Z,97214.91
2019-03-30T17:27:01.281Z,97213.72
2019-03-30T17:28:38.204Z,97212.64
2019-03-30T17:30:16.104Z,97217.87
2019-03-30T17:31:55.315Z,97217.70
2019-03-30T17:33:35.876Z,97216.20
2019-03-30T17:35:12.215Z,97216.80
2019-03-30T17:36:48.739Z,97222.62
2019-03-30T17:38:25.035Z,97220.77
2019-03-30T17:40:03.280Z,97219.39
2019-03-30T17:41:40.513Z,97217.39
2019-03-30T17:43:17.753Z,97222.14
2019-03-30T17:45:07.017Z,97220.56
2019-03-30T17:46:50.918Z,97220.11
2019-03-30T17:48:32.863Z,97220.55
2019-03-30T17:50:13.071Z,97221.56
2019-03-30T17:51:53.729Z,97221.55
2019-03-30T17:53:41.382Z,97218.91
2019-03-30T17:55:33.107Z,97225.11
2019-03-30T17:56:58.033Z,97225.66
2019-03-30T17:58:51.549Z,97235.84
2019-03-30T18:00:30.806Z,97235.63
2019-03-30T18:02:15.159Z,97232.93
2019-03-30T18:03:52.342Z,97232.44
2019-03-30T18:05:33.485Z,97236.38
2019-03-30T18:07:17.281Z,97243.72
2019-03-30T18:08:53.817Z,97242.94
2019-03-30T18:10:35.882Z,97246.46
2019-03-30T18:12:13.957Z,97250.73
2019-03-30T18:13:53.654Z,97246.56
2019-03-30T18:15:38.402Z,97247.07
2019-03-30T18:17:22.289Z,97252.89
2019-03-30T18:19:09.858Z,97254.25
2019-03-30T18:20:47.476Z,97247.34
2019-03-30T18:22:30.473Z,97250.24
2019-03-30T18:24:14.271Z,97252.20
2019-03-30T18:25:50.383Z,97252.98
2019-03-30T18:27:37.075Z,97253.16
2019-03-30T18:29:14.476Z,97260.40
2019-03-30T18:30:55.306Z,97263.96
2019-03-30T18:32:46.481Z,97267.25
2019-03-30T18:34:25.879Z,97266.22
2019-03-30T18:36:03.700Z,97264.77
2019-03-30T18:37:46.332Z,97271.33
2019-03-30T18:39:27.656Z,97273.72
2019-03-30T18:41:08.820Z,97269.54
2019-03-30T18:43:05.651Z,97275.43
2019-03-30T18:44:43.443Z,97277.98
2019-03-30T18:46:19.423Z,97276.08
2019-03-30T18:47:57.101Z,97278.47
2019-03-30T18:49:36.444Z,97278.04
2019-03-30T18:51:12.481Z,97280.60
2019-03-30T18:52:51.607Z,97284.25
2019-03-30T18:54:27.741Z,97286.98
2019-03-30T18:56:16.212Z,97286.46
2019-03-30T18:58:02.846Z,97284.43
2019-03-30T18:59:46.705Z,97278.03
2019-03-30T19:01:24.087Z,97281.17
2019-03-30T19:03:00.382Z,97285.52
2019-03-30T19:04:42.304Z,97284.39
2019-03-30T19:06:21.581Z,97286.04
2019-03-30T19:08:05.423Z,97288.91
2019-03-30T19:09:44.718Z,97284.84
2019-03-30T19:11:24.616Z,97283.83
2019-03-30T19:13:05.894Z,97291.53
2019-03-30T19:14:45.942Z,97291.89
2019-03-30T19:16:23.721Z,97292.36
2019-03-30T19:18:02.677Z,97296.75
2019-03-30T19:19:39.040Z,97293.66
2019-03-30T19:21:35.800Z,97291.59
2019-03-30T19:23:12.072Z,97292.30